Terminal Aerodrome Forecast
Issued by NWS Sioux Falls, SD

Home | Current Version | Previous Version | Text Only | Print | Product List | Glossary On
Versions: 1 2 3 4 5 6 7 8 9 10 11 12 13
000
FTUS43 KFSD 142342
TAFFSD
TAF
KFSD 142342Z 1500/1524 05005KT P6SM BKN100
     FM150300 02004KT P6SM -SHRA OVC040
     FM151000 35005KT P6SM SKC
     FM151500 35008KT P6SM SCT040=

USA.gov is the U.S. government's official web portal to all federal, state and local government web resources and services.